sensor_id;sensor_type;location;lat;lon;timestamp;temperature;humidity
6988;DHT22;3534;49.960;8.018;2022-08-23T00:01:32;24.40;67.70
6988;DHT22;3534;49.960;8.018;2022-08-23T00:04:04;24.40;67.90
6988;DHT22;3534;49.960;8.018;2022-08-23T00:06:32;24.30;67.90
6988;DHT22;3534;49.960;8.018;2022-08-23T00:08:59;24.30;68.00
6988;DHT22;3534;49.960;8.018;2022-08-23T00:11:29;24.30;68.30
6988;DHT22;3534;49.960;8.018;2022-08-23T00:13:56;24.20;68.60
6988;DHT22;3534;49.960;8.018;2022-08-23T00:16:24;24.20;68.70
6988;DHT22;3534;49.960;8.018;2022-08-23T00:18:50;24.20;68.80
6988;DHT22;3534;49.960;8.018;2022-08-23T00:21:17;24.10;68.50
6988;DHT22;3534;49.960;8.018;2022-08-23T00:23:45;24.10;68.40
6988;DHT22;3534;49.960;8.018;2022-08-23T00:26:12;24.10;68.50
6988;DHT22;3534;49.960;8.018;2022-08-23T00:28:39;24.00;68.60
6988;DHT22;3534;49.960;8.018;2022-08-23T00:31:06;24.00;68.60
6988;DHT22;3534;49.960;8.018;2022-08-23T00:33:33;24.00;68.60
6988;DHT22;3534;49.960;8.018;2022-08-23T00:35:59;24.00;68.80
6988;DHT22;3534;49.960;8.018;2022-08-23T00:38:26;23.90;68.70
6988;DHT22;3534;49.960;8.018;2022-08-23T00:40:54;23.90;68.80
6988;DHT22;3534;49.960;8.018;2022-08-23T00:43:25;23.90;68.90
6988;DHT22;3534;49.960;8.018;2022-08-23T00:46:17;23.90;69.00
6988;DHT22;3534;49.960;8.018;2022-08-23T00:49:06;23.90;69.30
6988;DHT22;3534;49.960;8.018;2022-08-23T00:51:37;23.90;69.30
6988;DHT22;3534;49.960;8.018;2022-08-23T00:54:08;23.90;69.40
6988;DHT22;3534;49.960;8.018;2022-08-23T00:56:38;23.90;69.60
6988;DHT22;3534;49.960;8.018;2022-08-23T00:59:05;23.90;69.60
6988;DHT22;3534;49.960;8.018;2022-08-23T01:01:32;23.90;69.90
6988;DHT22;3534;49.960;8.018;2022-08-23T01:04:00;23.80;69.90
6988;DHT22;3534;49.960;8.018;2022-08-23T01:06:31;23.80;70.20
6988;DHT22;3534;49.960;8.018;2022-08-23T01:09:03;23.80;70.40
6988;DHT22;3534;49.960;8.018;2022-08-23T01:11:34;23.80;70.50
6988;DHT22;3534;49.960;8.018;2022-08-23T01:14:07;23.80;70.60
6988;DHT22;3534;49.960;8.018;2022-08-23T01:16:38;23.70;70.60
6988;DHT22;3534;49.960;8.018;2022-08-23T01:19:17;23.70;70.70
6988;DHT22;3534;49.960;8.018;2022-08-23T01:21:51;23.60;70.80
6988;DHT22;3534;49.960;8.018;2022-08-23T01:24:20;23.60;71.00
6988;DHT22;3534;49.960;8.018;2022-08-23T01:26:47;23.60;71.30
6988;DHT22;3534;49.960;8.018;2022-08-23T01:29:15;23.50;71.30
6988;DHT22;3534;49.960;8.018;2022-08-23T01:31:42;23.50;71.40
6988;DHT22;3534;49.960;8.018;2022-08-23T01:34:10;23.50;71.60
6988;DHT22;3534;49.960;8.018;2022-08-23T01:36:38;23.50;71.80
6988;DHT22;3534;49.960;8.018;2022-08-23T01:39:05;23.50;72.00
6988;DHT22;3534;49.960;8.018;2022-08-23T01:41:34;23.40;72.10
6988;DHT22;3534;49.960;8.018;2022-08-23T01:44:03;23.40;72.50
6988;DHT22;3534;49.960;8.018;2022-08-23T01:46:30;23.40;72.40
6988;DHT22;3534;49.960;8.018;2022-08-23T01:48:57;23.40;72.70
6988;DHT22;3534;49.960;8.018;2022-08-23T01:51:24;23.30;72.70
6988;DHT22;3534;49.960;8.018;2022-08-23T01:53:51;23.30;72.80
6988;DHT22;3534;49.960;8.018;2022-08-23T01:56:18;23.30;72.90
6988;DHT22;3534;49.960;8.018;2022-08-23T01:58:47;23.30;73.20
6988;DHT22;3534;49.960;8.018;2022-08-23T02:01:15;23.30;73.30
6988;DHT22;3534;49.960;8.018;2022-08-23T02:03:43;23.30;73.50
6988;DHT22;3534;49.960;8.018;2022-08-23T02:06:10;23.30;73.70
6988;DHT22;3534;49.960;8.018;2022-08-23T02:08:37;23.20;73.90
6988;DHT22;3534;49.960;8.018;2022-08-23T02:11:24;23.20;74.00
6988;DHT22;3534;49.960;8.018;2022-08-23T02:13:53;23.20;74.40
6988;DHT22;3534;49.960;8.018;2022-08-23T02:16:22;23.20;74.60
6988;DHT22;3534;49.960;8.018;2022-08-23T02:18:49;23.20;74.80
6988;DHT22;3534;49.960;8.018;2022-08-23T02:21:16;23.20;74.70
6988;DHT22;3534;49.960;8.018;2022-08-23T02:23:43;23.10;75.00
6988;DHT22;3534;49.960;8.018;2022-08-23T02:26:10;23.10;75.10
6988;DHT22;3534;49.960;8.018;2022-08-23T02:28:37;23.10;75.60
6988;DHT22;3534;49.960;8.018;2022-08-23T02:31:05;23.10;75.80
6988;DHT22;3534;49.960;8.018;2022-08-23T02:33:32;23.10;76.20
6988;DHT22;3534;49.960;8.018;2022-08-23T02:35:59;23.00;76.10
6988;DHT22;3534;49.960;8.018;2022-08-23T02:38:26;23.00;76.20
6988;DHT22;3534;49.960;8.018;2022-08-23T02:40:52;23.00;76.40
6988;DHT22;3534;49.960;8.018;2022-08-23T02:43:19;23.00;76.40
6988;DHT22;3534;49.960;8.018;2022-08-23T02:45:46;23.00;76.70
6988;DHT22;3534;49.960;8.018;2022-08-23T02:48:14;23.00;77.00
6988;DHT22;3534;49.960;8.018;2022-08-23T02:50:41;23.00;77.30
6988;DHT22;3534;49.960;8.018;2022-08-23T02:53:07;22.90;77.70
6988;DHT22;3534;49.960;8.018;2022-08-23T02:55:34;22.90;77.80
6988;DHT22;3534;49.960;8.018;2022-08-23T02:58:01;22.90;78.30
6988;DHT22;3534;49.960;8.018;2022-08-23T03:00:29;22.80;78.50
6988;DHT22;3534;49.960;8.018;2022-08-23T03:02:56;22.80;79.00
6988;DHT22;3534;49.960;8.018;2022-08-23T03:05:24;22.70;79.30
6988;DHT22;3534;49.960;8.018;2022-08-23T03:07:51;22.60;79.40
6988;DHT22;3534;49.960;8.018;2022-08-23T03:10:18;22.70;79.80
6988;DHT22;3534;49.960;8.018;2022-08-23T03:12:44;22.60;79.80
6988;DHT22;3534;49.960;8.018;2022-08-23T03:15:11;22.60;80.00
6988;DHT22;3534;49.960;8.018;2022-08-23T03:17:38;22.60;80.40
6988;DHT22;3534;49.960;8.018;2022-08-23T03:20:05;22.60;80.50
6988;DHT22;3534;49.960;8.018;2022-08-23T03:22:34;22.50;80.60
6988;DHT22;3534;49.960;8.018;2022-08-23T03:25:02;22.50;80.90
6988;DHT22;3534;49.960;8.018;2022-08-23T03:27:29;22.50;81.30
6988;DHT22;3534;49.960;8.018;2022-08-23T03:29:57;22.50;81.70
6988;DHT22;3534;49.960;8.018;2022-08-23T03:32:24;22.40;82.70
6988;DHT22;3534;49.960;8.018;2022-08-23T03:34:50;22.40;82.40
6988;DHT22;3534;49.960;8.018;2022-08-23T03:37:18;22.40;82.70
6988;DHT22;3534;49.960;8.018;2022-08-23T03:39:46;22.30;82.80
6988;DHT22;3534;49.960;8.018;2022-08-23T03:42:14;22.30;83.40
6988;DHT22;3534;49.960;8.018;2022-08-23T03:44:41;22.30;83.60
6988;DHT22;3534;49.960;8.018;2022-08-23T03:47:07;22.20;84.00
6988;DHT22;3534;49.960;8.018;2022-08-23T03:49:34;22.20;84.30
6988;DHT22;3534;49.960;8.018;2022-08-23T03:52:02;22.10;84.70
6988;DHT22;3534;49.960;8.018;2022-08-23T03:54:28;22.10;84.80
6988;DHT22;3534;49.960;8.018;2022-08-23T03:56:58;22.00;85.30
6988;DHT22;3534;49.960;8.018;2022-08-23T03:59:28;22.00;85.70
6988;DHT22;3534;49.960;8.018;2022-08-23T04:01:55;22.00;86.30
6988;DHT22;3534;49.960;8.018;2022-08-23T04:04:22;21.90;86.80
6988;DHT22;3534;49.960;8.018;2022-08-23T04:06:49;21.80;87.40
6988;DHT22;3534;49.960;8.018;2022-08-23T04:09:16;21.80;87.90
6988;DHT22;3534;49.960;8.018;2022-08-23T04:11:43;21.80;88.40
6988;DHT22;3534;49.960;8.018;2022-08-23T04:14:11;21.80;88.80
6988;DHT22;3534;49.960;8.018;2022-08-23T04:16:38;21.70;89.40
6988;DHT22;3534;49.960;8.018;2022-08-23T04:19:06;21.70;89.80
6988;DHT22;3534;49.960;8.018;2022-08-23T04:21:35;21.70;90.20
6988;DHT22;3534;49.960;8.018;2022-08-23T04:24:02;21.60;90.40
6988;DHT22;3534;49.960;8.018;2022-08-23T04:26:29;21.60;90.80
6988;DHT22;3534;49.960;8.018;2022-08-23T04:28:56;21.60;91.00
6988;DHT22;3534;49.960;8.018;2022-08-23T04:31:24;21.50;91.20
6988;DHT22;3534;49.960;8.018;2022-08-23T04:33:51;21.50;91.40
6988;DHT22;3534;49.960;8.018;2022-08-23T04:36:18;21.40;91.70
6988;DHT22;3534;49.960;8.018;2022-08-23T04:38:45;21.40;92.00
6988;DHT22;3534;49.960;8.018;2022-08-23T04:41:12;21.40;92.30
6988;DHT22;3534;49.960;8.018;2022-08-23T04:43:56;21.40;92.50
6988;DHT22;3534;49.960;8.018;2022-08-23T04:46:25;21.30;93.00
6988;DHT22;3534;49.960;8.018;2022-08-23T04:48:51;21.30;93.40
6988;DHT22;3534;49.960;8.018;2022-08-23T04:51:19;21.30;93.70
6988;DHT22;3534;49.960;8.018;2022-08-23T04:53:47;21.20;93.90
6988;DHT22;3534;49.960;8.018;2022-08-23T04:56:14;21.20;94.20
6988;DHT22;3534;49.960;8.018;2022-08-23T04:58:40;21.20;94.50
6988;DHT22;3534;49.960;8.018;2022-08-23T05:01:08;21.20;95.00
6988;DHT22;3534;49.960;8.018;2022-08-23T05:03:36;21.10;95.40
6988;DHT22;3534;49.960;8.018;2022-08-23T05:06:04;21.10;95.50
6988;DHT22;3534;49.960;8.018;2022-08-23T05:08:31;21.10;95.70
6988;DHT22;3534;49.960;8.018;2022-08-23T05:10:59;21.10;96.00
6988;DHT22;3534;49.960;8.018;2022-08-23T05:13:27;21.10;96.30
6988;DHT22;3534;49.960;8.018;2022-08-23T05:15:55;21.10;96.50
6988;DHT22;3534;49.960;8.018;2022-08-23T05:18:22;21.10;96.60
6988;DHT22;3534;49.960;8.018;2022-08-23T05:20:51;21.10;97.00
6988;DHT22;3534;49.960;8.018;2022-08-23T05:23:18;21.10;97.10
6988;DHT22;3534;49.960;8.018;2022-08-23T05:25:44;21.10;97.40
6988;DHT22;3534;49.960;8.018;2022-08-23T05:28:20;21.10;97.70
6988;DHT22;3534;49.960;8.018;2022-08-23T05:30:54;21.10;97.90
6988;DHT22;3534;49.960;8.018;2022-08-23T05:33:21;21.10;98.20
6988;DHT22;3534;49.960;8.018;2022-08-23T05:35:48;21.10;98.50
6988;DHT22;3534;49.960;8.018;2022-08-23T05:38:16;21.10;98.60
6988;DHT22;3534;49.960;8.018;2022-08-23T05:40:43;21.10;98.90
6988;DHT22;3534;49.960;8.018;2022-08-23T05:43:10;21.10;99.10
6988;DHT22;3534;49.960;8.018;2022-08-23T05:45:36;21.10;99.50
6988;DHT22;3534;49.960;8.018;2022-08-23T05:48:03;21.10;99.90
6988;DHT22;3534;49.960;8.018;2022-08-23T05:50:30;21.10;99.90
6988;DHT22;3534;49.960;8.018;2022-08-23T05:52:57;21.10;99.90
6988;DHT22;3534;49.960;8.018;2022-08-23T05:55:24;21.10;99.90
6988;DHT22;3534;49.960;8.018;2022-08-23T05:57:51;21.10;99.90
6988;DHT22;3534;49.960;8.018;2022-08-23T06:00:18;21.10;99.90
6988;DHT22;3534;49.960;8.018;2022-08-23T06:02:45;21.10;99.90
6988;DHT22;3534;49.960;8.018;2022-08-23T06:05:14;21.20;99.90
6988;DHT22;3534;49.960;8.018;2022-08-23T06:07:41;21.20;99.90
6988;DHT22;3534;49.960;8.018;2022-08-23T06:10:08;21.20;99.90
6988;DHT22;3534;49.960;8.018;2022-08-23T06:12:36;21.20;99.90
6988;DHT22;3534;49.960;8.018;2022-08-23T06:15:03;21.20;99.90
6988;DHT22;3534;49.960;8.018;2022-08-23T06:17:30;21.30;99.90
6988;DHT22;3534;49.960;8.018;2022-08-23T06:19:57;21.30;99.90
6988;DHT22;3534;49.960;8.018;2022-08-23T06:22:23;21.30;99.90
6988;DHT22;3534;49.960;8.018;2022-08-23T06:24:50;21.40;99.90
6988;DHT22;3534;49.960;8.018;2022-08-23T06:27:17;21.40;99.90
6988;DHT22;3534;49.960;8.018;2022-08-23T06:29:45;21.40;99.90
6988;DHT22;3534;49.960;8.018;2022-08-23T06:32:11;21.40;99.90
6988;DHT22;3534;49.960;8.018;2022-08-23T06:34:38;21.50;99.90
6988;DHT22;3534;49.960;8.018;2022-08-23T06:37:07;21.50;99.90
6988;DHT22;3534;49.960;8.018;2022-08-23T06:39:35;21.50;99.90
6988;DHT22;3534;49.960;8.018;2022-08-23T06:42:04;21.50;99.90
6988;DHT22;3534;49.960;8.018;2022-08-23T06:44:32;21.60;99.90
6988;DHT22;3534;49.960;8.018;2022-08-23T06:47:01;21.60;99.90
6988;DHT22;3534;49.960;8.018;2022-08-23T06:49:29;21.60;99.90
6988;DHT22;3534;49.960;8.018;2022-08-23T06:51:57;21.70;99.90
6988;DHT22;3534;49.960;8.018;2022-08-23T06:54:27;21.70;99.90
6988;DHT22;3534;49.960;8.018;2022-08-23T06:56:56;21.70;99.90
6988;DHT22;3534;49.960;8.018;2022-08-23T06:59:23;21.80;99.90
6988;DHT22;3534;49.960;8.018;2022-08-23T07:01:51;21.80;99.90
6988;DHT22;3534;49.960;8.018;2022-08-23T07:04:22;21.90;99.90
6988;DHT22;3534;49.960;8.018;2022-08-23T07:06:50;21.90;99.90
6988;DHT22;3534;49.960;8.018;2022-08-23T07:09:17;22.00;99.90
6988;DHT22;3534;49.960;8.018;2022-08-23T07:11:44;22.00;99.90
6988;DHT22;3534;49.960;8.018;2022-08-23T07:14:14;22.10;99.90
6988;DHT22;3534;49.960;8.018;2022-08-23T07:16:43;22.10;99.90
6988;DHT22;3534;49.960;8.018;2022-08-23T07:19:11;22.20;99.90
6988;DHT22;3534;49.960;8.018;2022-08-23T07:21:40;22.30;99.90
6988;DHT22;3534;49.960;8.018;2022-08-23T07:24:08;22.30;99.90
6988;DHT22;3534;49.960;8.018;2022-08-23T07:26:35;22.40;99.90
6988;DHT22;3534;49.960;8.018;2022-08-23T07:29:04;22.50;99.90
6988;DHT22;3534;49.960;8.018;2022-08-23T07:31:32;22.50;99.90
6988;DHT22;3534;49.960;8.018;2022-08-23T07:34:02;22.60;99.90
6988;DHT22;3534;49.960;8.018;2022-08-23T07:36:31;22.60;99.90
6988;DHT22;3534;49.960;8.018;2022-08-23T07:39:00;22.70;99.90
6988;DHT22;3534;49.960;8.018;2022-08-23T07:41:29;22.70;99.90
6988;DHT22;3534;49.960;8.018;2022-08-23T07:43:57;22.80;99.90
6988;DHT22;3534;49.960;8.018;2022-08-23T07:46:24;22.80;99.90
6988;DHT22;3534;49.960;8.018;2022-08-23T07:48:52;22.80;99.90
6988;DHT22;3534;49.960;8.018;2022-08-23T07:51:19;22.80;99.90
6988;DHT22;3534;49.960;8.018;2022-08-23T07:53:46;22.70;99.90
6988;DHT22;3534;49.960;8.018;2022-08-23T07:56:16;22.80;99.90
6988;DHT22;3534;49.960;8.018;2022-08-23T07:58:43;22.80;99.90
6988;DHT22;3534;49.960;8.018;2022-08-23T08:01:11;22.90;99.90
6988;DHT22;3534;49.960;8.018;2022-08-23T08:03:40;23.00;99.90
6988;DHT22;3534;49.960;8.018;2022-08-23T08:06:09;23.00;99.90
6988;DHT22;3534;49.960;8.018;2022-08-23T08:08:38;23.10;99.90
6988;DHT22;3534;49.960;8.018;2022-08-23T08:11:06;23.20;99.90
6988;DHT22;3534;49.960;8.018;2022-08-23T08:13:36;23.20;99.90
6988;DHT22;3534;49.960;8.018;2022-08-23T08:16:04;23.30;99.90
6988;DHT22;3534;49.960;8.018;2022-08-23T08:18:31;23.40;99.90
6988;DHT22;3534;49.960;8.018;2022-08-23T08:20:58;23.40;99.90
6988;DHT22;3534;49.960;8.018;2022-08-23T08:23:25;23.50;99.90
6988;DHT22;3534;49.960;8.018;2022-08-23T08:25:59;23.50;99.90
6988;DHT22;3534;49.960;8.018;2022-08-23T08:28:26;23.60;99.90
6988;DHT22;3534;49.960;8.018;2022-08-23T08:30:54;23.70;99.90
6988;DHT22;3534;49.960;8.018;2022-08-23T08:33:23;23.70;99.80
6988;DHT22;3534;49.960;8.018;2022-08-23T08:35:50;23.80;99.80
6988;DHT22;3534;49.960;8.018;2022-08-23T08:38:16;23.80;99.60
6988;DHT22;3534;49.960;8.018;2022-08-23T08:40:43;23.90;99.00
6988;DHT22;3534;49.960;8.018;2022-08-23T08:43:22;23.90;98.70
6988;DHT22;3534;49.960;8.018;2022-08-23T08:46:01;23.90;98.70
6988;DHT22;3534;49.960;8.018;2022-08-23T08:48:35;24.00;99.00
6988;DHT22;3534;49.960;8.018;2022-08-23T08:51:13;24.00;99.10
6988;DHT22;3534;49.960;8.018;2022-08-23T08:53:45;24.10;98.90
6988;DHT22;3534;49.960;8.018;2022-08-23T08:56:18;24.20;98.90
6988;DHT22;3534;49.960;8.018;2022-08-23T08:58:49;24.20;98.30
6988;DHT22;3534;49.960;8.018;2022-08-23T09:01:18;24.30;98.20
6988;DHT22;3534;49.960;8.018;2022-08-23T09:03:45;24.40;97.70
6988;DHT22;3534;49.960;8.018;2022-08-23T09:06:15;24.40;97.50
6988;DHT22;3534;49.960;8.018;2022-08-23T09:09:00;24.50;97.20
6988;DHT22;3534;49.960;8.018;2022-08-23T09:11:40;24.50;97.40
6988;DHT22;3534;49.960;8.018;2022-08-23T09:17:22;24.60;97.00
6988;DHT22;3534;49.960;8.018;2022-08-23T09:19:51;24.60;96.60
6988;DHT22;3534;49.960;8.018;2022-08-23T09:22:29;24.70;96.60
6988;DHT22;3534;49.960;8.018;2022-08-23T09:24:57;24.70;96.80
6988;DHT22;3534;49.960;8.018;2022-08-23T09:27:24;24.80;96.30
6988;DHT22;3534;49.960;8.018;2022-08-23T09:29:54;24.80;95.80
6988;DHT22;3534;49.960;8.018;2022-08-23T09:32:28;24.90;96.00
6988;DHT22;3534;49.960;8.018;2022-08-23T09:35:11;24.90;96.00
6988;DHT22;3534;49.960;8.018;2022-08-23T09:37:52;25.00;95.60
6988;DHT22;3534;49.960;8.018;2022-08-23T09:40:33;25.10;95.40
6988;DHT22;3534;49.960;8.018;2022-08-23T09:43:08;25.10;94.90
6988;DHT22;3534;49.960;8.018;2022-08-23T09:45:37;25.10;95.00
6988;DHT22;3534;49.960;8.018;2022-08-23T09:48:08;25.20;95.20
6988;DHT22;3534;49.960;8.018;2022-08-23T09:50:40;25.30;94.90
6988;DHT22;3534;49.960;8.018;2022-08-23T09:53:09;25.30;94.80
6988;DHT22;3534;49.960;8.018;2022-08-23T09:55:39;25.40;94.70
6988;DHT22;3534;49.960;8.018;2022-08-23T09:58:16;25.40;94.40
6988;DHT22;3534;49.960;8.018;2022-08-23T10:00:43;25.50;94.50
6988;DHT22;3534;49.960;8.018;2022-08-23T10:03:23;25.60;94.20
6988;DHT22;3534;49.960;8.018;2022-08-23T10:05:53;25.70;93.80
6988;DHT22;3534;49.960;8.018;2022-08-23T10:08:26;25.70;93.50
6988;DHT22;3534;49.960;8.018;2022-08-23T10:10:56;25.80;93.50
6988;DHT22;3534;49.960;8.018;2022-08-23T10:13:24;25.80;93.10
6988;DHT22;3534;49.960;8.018;2022-08-23T10:16:01;25.90;92.90
6988;DHT22;3534;49.960;8.018;2022-08-23T10:18:41;25.90;92.80
6988;DHT22;3534;49.960;8.018;2022-08-23T10:21:18;26.00;92.60
6988;DHT22;3534;49.960;8.018;2022-08-23T10:23:54;26.00;92.60
6988;DHT22;3534;49.960;8.018;2022-08-23T10:26:26;26.00;92.60
6988;DHT22;3534;49.960;8.018;2022-08-23T10:28:59;26.10;92.20
6988;DHT22;3534;49.960;8.018;2022-08-23T10:31:51;26.20;92.40
6988;DHT22;3534;49.960;8.018;2022-08-23T10:34:38;26.20;92.00
6988;DHT22;3534;49.960;8.018;2022-08-23T10:37:42;26.30;91.20
6988;DHT22;3534;49.960;8.018;2022-08-23T10:40:15;26.40;90.80
6988;DHT22;3534;49.960;8.018;2022-08-23T10:42:51;26.50;90.70
6988;DHT22;3534;49.960;8.018;2022-08-23T10:45:25;26.50;91.10
6988;DHT22;3534;49.960;8.018;2022-08-23T10:48:02;26.60;90.70
6988;DHT22;3534;49.960;8.018;2022-08-23T10:50:40;26.70;90.10
6988;DHT22;3534;49.960;8.018;2022-08-23T10:53:11;26.70;88.70
6988;DHT22;3534;49.960;8.018;2022-08-23T10:55:40;26.90;89.10
6988;DHT22;3534;49.960;8.018;2022-08-23T10:58:21;27.00;87.70
6988;DHT22;3534;49.960;8.018;2022-08-23T11:00:51;27.00;86.70
6988;DHT22;3534;49.960;8.018;2022-08-23T11:03:27;27.00;86.20
6988;DHT22;3534;49.960;8.018;2022-08-23T11:06:42;27.10;86.70
6988;DHT22;3534;49.960;8.018;2022-08-23T11:09:35;27.10;86.50
6988;DHT22;3534;49.960;8.018;2022-08-23T11:12:14;27.20;85.10
6988;DHT22;3534;49.960;8.018;2022-08-23T11:14:46;27.30;84.70
6988;DHT22;3534;49.960;8.018;2022-08-23T11:17:25;27.30;85.10
6988;DHT22;3534;49.960;8.018;2022-08-23T11:19:54;27.40;84.20
6988;DHT22;3534;49.960;8.018;2022-08-23T11:22:24;27.40;83.40
6988;DHT22;3534;49.960;8.018;2022-08-23T11:24:57;27.60;83.90
6988;DHT22;3534;49.960;8.018;2022-08-23T11:27:31;27.60;83.60
6988;DHT22;3534;49.960;8.018;2022-08-23T11:32:59;27.70;83.30
6988;DHT22;3534;49.960;8.018;2022-08-23T11:35:34;27.70;81.60
6988;DHT22;3534;49.960;8.018;2022-08-23T11:38:05;27.80;79.80
6988;DHT22;3534;49.960;8.018;2022-08-23T11:40:43;27.90;79.40
6988;DHT22;3534;49.960;8.018;2022-08-23T11:43:26;27.90;80.00
6988;DHT22;3534;49.960;8.018;2022-08-23T11:45:53;28.00;79.30
6988;DHT22;3534;49.960;8.018;2022-08-23T11:48:40;28.10;77.90
6988;DHT22;3534;49.960;8.018;2022-08-23T11:51:18;28.10;77.80
6988;DHT22;3534;49.960;8.018;2022-08-23T11:54:05;28.20;78.00
6988;DHT22;3534;49.960;8.018;2022-08-23T11:56:45;28.30;77.90
6988;DHT22;3534;49.960;8.018;2022-08-23T11:59:29;28.50;77.40
6988;DHT22;3534;49.960;8.018;2022-08-23T12:05:02;28.80;74.60
6988;DHT22;3534;49.960;8.018;2022-08-23T12:07:49;28.90;75.20
6988;DHT22;3534;49.960;8.018;2022-08-23T12:10:51;29.20;74.70
6988;DHT22;3534;49.960;8.018;2022-08-23T12:13:44;29.30;74.20
6988;DHT22;3534;49.960;8.018;2022-08-23T12:16:33;29.60;73.60
6988;DHT22;3534;49.960;8.018;2022-08-23T12:19:04;29.90;72.70
6988;DHT22;3534;49.960;8.018;2022-08-23T12:21:34;30.20;72.00
6988;DHT22;3534;49.960;8.018;2022-08-23T12:24:13;30.30;71.10
6988;DHT22;3534;49.960;8.018;2022-08-23T12:26:45;30.50;71.10
6988;DHT22;3534;49.960;8.018;2022-08-23T12:29:27;30.60;69.40
6988;DHT22;3534;49.960;8.018;2022-08-23T12:32:02;30.80;69.60
6988;DHT22;3534;49.960;8.018;2022-08-23T12:34:37;31.20;68.70
6988;DHT22;3534;49.960;8.018;2022-08-23T12:37:14;31.30;67.90
6988;DHT22;3534;49.960;8.018;2022-08-23T12:39:49;31.50;66.40
6988;DHT22;3534;49.960;8.018;2022-08-23T12:42:18;31.40;65.90
6988;DHT22;3534;49.960;8.018;2022-08-23T12:44:58;31.30;65.90
6988;DHT22;3534;49.960;8.018;2022-08-23T12:47:25;31.50;65.60
6988;DHT22;3534;49.960;8.018;2022-08-23T12:49:55;31.60;64.60
6988;DHT22;3534;49.960;8.018;2022-08-23T12:52:25;31.70;64.20
6988;DHT22;3534;49.960;8.018;2022-08-23T12:54:52;32.10;63.10
6988;DHT22;3534;49.960;8.018;2022-08-23T12:57:31;32.50;63.30
6988;DHT22;3534;49.960;8.018;2022-08-23T13:00:09;32.80;61.80
6988;DHT22;3534;49.960;8.018;2022-08-23T13:02:45;33.10;61.20
6988;DHT22;3534;49.960;8.018;2022-08-23T13:05:20;33.30;60.10
6988;DHT22;3534;49.960;8.018;2022-08-23T13:07:50;33.20;59.80
6988;DHT22;3534;49.960;8.018;2022-08-23T13:10:17;33.10;60.80
6988;DHT22;3534;49.960;8.018;2022-08-23T13:12:44;33.10;61.70
6988;DHT22;3534;49.960;8.018;2022-08-23T13:15:43;33.10;60.90
6988;DHT22;3534;49.960;8.018;2022-08-23T13:18:09;33.20;61.40
6988;DHT22;3534;49.960;8.018;2022-08-23T13:20:36;33.60;61.70
6988;DHT22;3534;49.960;8.018;2022-08-23T13:23:05;33.80;60.00
6988;DHT22;3534;49.960;8.018;2022-08-23T13:25:35;34.20;61.00
6988;DHT22;3534;49.960;8.018;2022-08-23T13:28:04;34.40;59.10
6988;DHT22;3534;49.960;8.018;2022-08-23T13:30:34;34.30;59.20
6988;DHT22;3534;49.960;8.018;2022-08-23T13:33:20;34.20;60.00
6988;DHT22;3534;49.960;8.018;2022-08-23T13:35:49;34.00;58.10
6988;DHT22;3534;49.960;8.018;2022-08-23T13:38:24;33.90;57.50
6988;DHT22;3534;49.960;8.018;2022-08-23T13:40:58;33.70;59.80
6988;DHT22;3534;49.960;8.018;2022-08-23T13:43:35;33.40;60.90
6988;DHT22;3534;49.960;8.018;2022-08-23T13:46:13;33.50;62.10
6988;DHT22;3534;49.960;8.018;2022-08-23T13:48:46;34.00;60.00
6988;DHT22;3534;49.960;8.018;2022-08-23T13:51:27;34.50;61.50
6988;DHT22;3534;49.960;8.018;2022-08-23T13:53:57;35.20;59.70
6988;DHT22;3534;49.960;8.018;2022-08-23T13:56:24;35.70;58.60
6988;DHT22;3534;49.960;8.018;2022-08-23T13:58:54;36.30;58.30
6988;DHT22;3534;49.960;8.018;2022-08-23T14:01:23;36.90;56.20
6988;DHT22;3534;49.960;8.018;2022-08-23T14:03:50;37.20;57.60
6988;DHT22;3534;49.960;8.018;2022-08-23T14:06:17;37.20;53.70
6988;DHT22;3534;49.960;8.018;2022-08-23T14:08:44;36.90;51.90
6988;DHT22;3534;49.960;8.018;2022-08-23T14:11:12;36.60;53.80
6988;DHT22;3534;49.960;8.018;2022-08-23T14:13:42;36.40;52.50
6988;DHT22;3534;49.960;8.018;2022-08-23T14:16:11;36.50;51.70
6988;DHT22;3534;49.960;8.018;2022-08-23T14:18:41;36.80;51.80
6988;DHT22;3534;49.960;8.018;2022-08-23T14:21:07;37.30;50.20
6988;DHT22;3534;49.960;8.018;2022-08-23T14:23:34;37.70;49.30
6988;DHT22;3534;49.960;8.018;2022-08-23T14:26:01;37.90;49.10
6988;DHT22;3534;49.960;8.018;2022-08-23T14:28:29;37.80;48.80
6988;DHT22;3534;49.960;8.018;2022-08-23T14:30:56;37.60;48.80
6988;DHT22;3534;49.960;8.018;2022-08-23T14:33:23;37.30;49.10
6988;DHT22;3534;49.960;8.018;2022-08-23T14:35:51;37.10;48.50
6988;DHT22;3534;49.960;8.018;2022-08-23T14:38:18;36.90;48.90
6988;DHT22;3534;49.960;8.018;2022-08-23T14:40:49;36.90;49.10
6988;DHT22;3534;49.960;8.018;2022-08-23T14:43:17;37.20;48.40
6988;DHT22;3534;49.960;8.018;2022-08-23T14:45:45;37.60;48.20
6988;DHT22;3534;49.960;8.018;2022-08-23T14:48:11;38.00;48.00
6988;DHT22;3534;49.960;8.018;2022-08-23T14:50:38;38.30;49.60
6988;DHT22;3534;49.960;8.018;2022-08-23T14:53:07;38.60;50.10
6988;DHT22;3534;49.960;8.018;2022-08-23T14:55:34;38.90;48.10
6988;DHT22;3534;49.960;8.018;2022-08-23T14:58:01;39.30;46.80
6988;DHT22;3534;49.960;8.018;2022-08-23T15:00:28;39.50;46.00
6988;DHT22;3534;49.960;8.018;2022-08-23T15:02:55;39.60;46.30
6988;DHT22;3534;49.960;8.018;2022-08-23T15:05:22;39.60;45.40
6988;DHT22;3534;49.960;8.018;2022-08-23T15:07:49;39.60;45.50
6988;DHT22;3534;49.960;8.018;2022-08-23T15:10:17;39.80;44.90
6988;DHT22;3534;49.960;8.018;2022-08-23T15:12:43;39.80;45.50
6988;DHT22;3534;49.960;8.018;2022-08-23T15:15:14;40.00;45.40
6988;DHT22;3534;49.960;8.018;2022-08-23T15:17:45;40.20;44.30
6988;DHT22;3534;49.960;8.018;2022-08-23T15:20:13;40.30;44.20
6988;DHT22;3534;49.960;8.018;2022-08-23T15:22:40;40.10;43.80
6988;DHT22;3534;49.960;8.018;2022-08-23T15:25:07;40.10;43.60
6988;DHT22;3534;49.960;8.018;2022-08-23T15:27:35;39.90;43.90
6988;DHT22;3534;49.960;8.018;2022-08-23T15:30:02;39.90;43.90
6988;DHT22;3534;49.960;8.018;2022-08-23T15:32:29;40.00;43.30
6988;DHT22;3534;49.960;8.018;2022-08-23T15:34:56;40.10;43.10
6988;DHT22;3534;49.960;8.018;2022-08-23T15:37:23;40.10;43.10
6988;DHT22;3534;49.960;8.018;2022-08-23T15:39:51;39.80;43.30
6988;DHT22;3534;49.960;8.018;2022-08-23T15:42:18;39.60;43.40
6988;DHT22;3534;49.960;8.018;2022-08-23T15:44:46;39.30;43.10
6988;DHT22;3534;49.960;8.018;2022-08-23T15:47:17;38.90;43.10
6988;DHT22;3534;49.960;8.018;2022-08-23T15:49:45;38.60;44.60
6988;DHT22;3534;49.960;8.018;2022-08-23T15:52:13;38.40;44.00
6988;DHT22;3534;49.960;8.018;2022-08-23T15:54:39;38.10;43.90
6988;DHT22;3534;49.960;8.018;2022-08-23T15:57:06;37.80;44.60
6988;DHT22;3534;49.960;8.018;2022-08-23T15:59:35;37.40;45.10
6988;DHT22;3534;49.960;8.018;2022-08-23T16:02:04;36.90;45.00
6988;DHT22;3534;49.960;8.018;2022-08-23T16:04:31;36.20;45.40
6988;DHT22;3534;49.960;8.018;2022-08-23T16:06:58;36.00;45.90
6988;DHT22;3534;49.960;8.018;2022-08-23T16:09:25;35.90;45.90
6988;DHT22;3534;49.960;8.018;2022-08-23T16:11:53;35.70;46.00
6988;DHT22;3534;49.960;8.018;2022-08-23T16:14:19;35.50;46.50
6988;DHT22;3534;49.960;8.018;2022-08-23T16:16:46;35.80;46.70
6988;DHT22;3534;49.960;8.018;2022-08-23T16:19:14;36.10;46.20
6988;DHT22;3534;49.960;8.018;2022-08-23T16:21:41;36.30;46.50
6988;DHT22;3534;49.960;8.018;2022-08-23T16:24:08;36.30;46.60
6988;DHT22;3534;49.960;8.018;2022-08-23T16:26:37;36.30;47.30
6988;DHT22;3534;49.960;8.018;2022-08-23T16:29:06;36.40;46.50
6988;DHT22;3534;49.960;8.018;2022-08-23T16:31:33;36.60;46.30